Time;durP1;ratioP1;P1;durP2;ratioP2;P2;SDS_P1;SDS_P2;PMS_P1;PMS_P2;Temp;Humidity;BMP_temperature;BMP_pressure;BME280_temperature;BME280_humidity;BME280_pressure;Samples;Min_cycle;Max_cycle;Signal;HPM_P1;HPM_P2
2024/02/18 00:01:08;;;;;;;;;17.33;16.67;;;;;;;;5079133;27;46296;-80
2024/02/18 00:03:34;;;;;;;;;16.33;16.33;;;;;;;;5079014;27;45228;-79
2024/02/18 00:05:59;;;;;;;;;16.00;14.00;;;;;;;;5073690;28;45521;-80
2024/02/18 00:08:24;;;;;;;;;14.67;14.67;;;;;;;;5062008;28;45382;-80
2024/02/18 00:10:49;;;;;;;;;12.00;10.33;;;;;;;;5060684;28;47216;-80
2024/02/18 00:13:15;;;;;;;;;15.33;13.00;;;;;;;;5061978;28;45286;-79
2024/02/18 00:15:40;;;;;;;;;13.67;11.33;;;;;;;;5062386;28;45318;-80
2024/02/18 00:18:05;;;;;;;;;15.00;15.00;;;;;;;;5062046;28;45809;-80
2024/02/18 00:20:30;;;;;;;;;14.00;10.33;;;;;;;;5061739;28;45491;-79
2024/02/18 00:22:55;;;;;;;;;14.33;12.33;;;;;;;;5061942;28;45230;-80
2024/02/18 00:25:20;;;;;;;;;13.33;12.00;;;;;;;;5061892;28;45603;-80
2024/02/18 00:27:46;;;;;;;;;15.67;14.67;;;;;;;;5060288;28;46273;-80
2024/02/18 00:30:11;;;;;;;;;14.67;13.33;;;;;;;;5061865;28;45340;-80
2024/02/18 00:32:36;;;;;;;;;15.00;14.00;;;;;;;;5061950;28;45382;-80
2024/02/18 00:35:01;;;;;;;;;12.67;11.67;;;;;;;;5062106;28;45414;-80
2024/02/18 00:37:26;;;;;;;;;13.33;12.33;;;;;;;;5061518;28;45349;-80
2024/02/18 00:39:51;;;;;;;;;11.67;11.67;;;;;;;;5061246;28;45326;-80
2024/02/18 00:42:17;;;;;;;;;13.00;13.00;;;;;;;;5059947;28;45838;-80
2024/02/18 00:44:42;;;;;;;;;12.67;12.67;;;;;;;;5060490;28;45340;-80
2024/02/18 00:47:07;;;;;;;;;13.00;13.00;;;;;;;;5059433;28;47186;-79
2024/02/18 00:49:32;;;;;;;;;13.00;12.33;;;;;;;;5061297;28;46579;-80
2024/02/18 00:51:58;;;;;;;;;11.00;11.00;;;;;;;;5061422;28;45252;-80
2024/02/18 00:54:23;;;;;;;;;13.00;11.33;;;;;;;;5061585;28;45318;-80
2024/02/18 00:56:50;;;;;;;;;14.00;14.00;;;;;;;;5064368;28;45602;-79
2024/02/18 00:59:15;;;;;;;;;14.00;13.67;;;;;;;;5079069;28;48475;-80
2024/02/18 01:01:40;;;;;;;;;12.00;12.00;;;;;;;;5079917;27;45356;-80
2024/02/18 01:04:05;;;;;;;;;10.33;10.33;;;;;;;;5078781;28;45575;-80
2024/02/18 01:06:30;;;;;;;;;15.33;14.33;;;;;;;;5079753;28;45370;-80
2024/02/18 01:08:56;;;;;;;;;14.00;14.00;;;;;;;;5078433;28;48213;-79
2024/02/18 01:11:21;;;;;;;;;15.00;12.67;;;;;;;;5079815;28;45358;-80
2024/02/18 01:13:46;;;;;;;;;11.00;11.00;;;;;;;;5080298;27;45458;-80
2024/02/18 01:16:11;;;;;;;;;13.67;12.00;;;;;;;;5079283;28;47228;-80
2024/02/18 01:18:40;;;;;;;;;12.67;11.00;;;;;;;;5081145;28;46684;-79
2024/02/18 01:21:06;;;;;;;;;11.00;10.00;;;;;;;;5080026;28;45275;-80
2024/02/18 01:23:31;;;;;;;;;13.00;12.00;;;;;;;;5079832;28;45302;-80
2024/02/18 01:25:56;;;;;;;;;12.00;12.00;;;;;;;;5079595;28;46001;-80
2024/02/18 01:28:24;;;;;;;;;14.00;12.00;;;;;;;;5081236;27;45439;-80
2024/02/18 01:30:49;;;;;;;;;18.00;18.00;;;;;;;;5081324;28;45226;-80
2024/02/18 01:33:14;;;;;;;;;13.33;13.33;;;;;;;;5079821;28;45307;-80
2024/02/18 01:35:39;;;;;;;;;13.00;12.00;;;;;;;;5081078;27;45552;-79
2024/02/18 01:38:04;;;;;;;;;11.67;11.00;;;;;;;;5080897;27;45191;-80
2024/02/18 01:40:30;;;;;;;;;12.67;11.33;;;;;;;;5079739;28;45892;-80
2024/02/18 01:42:55;;;;;;;;;15.00;13.33;;;;;;;;5081091;27;45217;-79
2024/02/18 01:45:20;;;;;;;;;11.67;11.00;;;;;;;;5079458;28;45841;-80
2024/02/18 01:47:45;;;;;;;;;11.00;11.00;;;;;;;;5073004;28;45711;-80
2024/02/18 01:50:11;;;;;;;;;13.00;10.33;;;;;;;;5060487;28;45252;-80
2024/02/18 01:52:37;;;;;;;;;12.67;11.33;;;;;;;;5058976;28;45286;-80
2024/02/18 01:55:03;;;;;;;;;12.67;11.33;;;;;;;;5060427;28;45428;-79
2024/02/18 01:57:29;;;;;;;;;10.67;10.67;;;;;;;;5058780;28;47112;-80
2024/02/18 01:59:59;;;;;;;;;15.00;14.00;;;;;;;;5059200;28;45441;-80
2024/02/18 02:02:24;;;;;;;;;12.67;11.67;;;;;;;;5060292;28;45330;-80
2024/02/18 02:04:50;;;;;;;;;12.00;12.00;;;;;;;;5058735;28;47303;-80
2024/02/18 02:07:15;;;;;;;;;15.00;11.67;;;;;;;;5059968;28;45451;-80
2024/02/18 02:09:41;;;;;;;;;13.33;11.00;;;;;;;;5058901;28;45308;-80
2024/02/18 02:12:06;;;;;;;;;10.00;10.00;;;;;;;;5060446;28;45275;-80
2024/02/18 02:14:31;;;;;;;;;14.00;12.33;;;;;;;;5058848;28;46245;-79
2024/02/18 02:16:56;;;;;;;;;10.00;10.00;;;;;;;;5058875;28;46964;-79
2024/02/18 02:19:22;;;;;;;;;10.67;10.67;;;;;;;;5060035;28;45254;-79
2024/02/18 02:21:47;;;;;;;;;10.33;10.33;;;;;;;;5058840;28;45419;-80
2024/02/18 02:24:12;;;;;;;;;11.33;10.67;;;;;;;;5060153;28;45462;-80
2024/02/18 02:26:41;;;;;;;;;12.00;9.00;;;;;;;;5059782;28;45379;-80
2024/02/18 02:29:09;;;;;;;;;10.00;10.00;;;;;;;;5059026;28;45375;-80
2024/02/18 02:31:35;;;;;;;;;8.33;7.33;;;;;;;;5058815;28;45213;-80
2024/02/18 02:34:00;;;;;;;;;9.00;9.00;;;;;;;;5058531;28;47145;-79
2024/02/18 02:36:25;;;;;;;;;11.33;10.67;;;;;;;;5058167;28;47072;-80
2024/02/18 02:38:50;;;;;;;;;14.67;10.33;;;;;;;;5060056;28;45273;-80
2024/02/18 02:41:16;;;;;;;;;10.33;9.00;;;;;;;;5059803;28;45283;-80
2024/02/18 02:43:42;;;;;;;;;14.33;11.67;;;;;;;;5059805;28;45275;-80
2024/02/18 02:46:07;;;;;;;;;13.00;11.00;;;;;;;;5058013;28;47624;-80
2024/02/18 02:48:32;;;;;;;;;13.33;11.33;;;;;;;;5058502;28;45269;-79
2024/02/18 02:50:57;;;;;;;;;12.33;11.33;;;;;;;;5059900;28;45222;-80
2024/02/18 02:53:22;;;;;;;;;15.00;11.67;;;;;;;;5059307;28;45380;-79
2024/02/18 02:55:47;;;;;;;;;12.67;12.67;;;;;;;;5058087;28;47210;-80
2024/02/18 02:58:13;;;;;;;;;8.67;8.67;;;;;;;;5074511;28;45212;-79
2024/02/18 03:00:38;;;;;;;;;9.00;9.00;;;;;;;;5080159;27;45501;-80
2024/02/18 03:03:03;;;;;;;;;9.67;8.67;;;;;;;;5078625;28;47505;-80
2024/02/18 03:05:28;;;;;;;;;8.33;8.33;;;;;;;;5078272;28;48506;-80
2024/02/18 03:07:53;;;;;;;;;9.00;8.00;;;;;;;;5079627;27;45282;-80
2024/02/18 03:10:19;;;;;;;;;12.33;9.33;;;;;;;;5078254;28;45270;-79
2024/02/18 03:12:44;;;;;;;;;10.00;9.67;;;;;;;;5079602;27;45201;-79
2024/02/18 03:15:09;;;;;;;;;10.33;10.33;;;;;;;;5079578;28;45476;-80
2024/02/18 03:17:35;;;;;;;;;5.67;5.67;;;;;;;;5079457;27;45401;-80
2024/02/18 03:20:00;;;;;;;;;10.67;9.67;;;;;;;;5078147;28;45428;-80
2024/02/18 03:22:25;;;;;;;;;12.67;12.67;;;;;;;;5079350;27;45606;-80
2024/02/18 03:24:50;;;;;;;;;11.00;9.00;;;;;;;;5079512;27;46064;-80
2024/02/18 03:27:17;;;;;;;;;10.00;10.00;;;;;;;;5066462;28;45742;-80
2024/02/18 03:29:42;;;;;;;;;11.33;10.00;;;;;;;;5057852;28;45365;-80
2024/02/18 03:32:08;;;;;;;;;11.33;10.67;;;;;;;;5057879;28;46361;-79
2024/02/18 03:34:33;;;;;;;;;9.33;7.67;;;;;;;;5057647;28;47177;-80
2024/02/18 03:36:58;;;;;;;;;10.67;10.33;;;;;;;;5059002;28;45343;-80
2024/02/18 03:39:23;;;;;;;;;13.00;13.00;;;;;;;;5058629;28;45292;-79
2024/02/18 03:41:49;;;;;;;;;9.33;9.33;;;;;;;;5062676;28;45323;-79
2024/02/18 03:44:14;;;;;;;;;11.00;8.67;;;;;;;;5062642;28;45379;-79
2024/02/18 03:46:39;;;;;;;;;7.00;7.00;;;;;;;;5062026;28;45425;-80
2024/02/18 03:49:05;;;;;;;;;8.00;8.00;;;;;;;;5061126;28;45404;-80
2024/02/18 03:51:30;;;;;;;;;8.00;8.00;;;;;;;;5061106;28;46147;-80
2024/02/18 03:53:55;;;;;;;;;8.00;8.00;;;;;;;;5062044;28;46203;-80
2024/02/18 03:56:20;;;;;;;;;8.67;7.33;;;;;;;;5062259;28;45450;-80
2024/02/18 03:58:45;;;;;;;;;9.33;7.33;;;;;;;;5082076;28;45256;-80
2024/02/18 04:01:10;;;;;;;;;8.33;8.33;;;;;;;;5082692;27;45209;-80
2024/02/18 04:03:36;;;;;;;;;7.33;7.33;;;;;;;;5082591;27;45483;-79
2024/02/18 04:06:01;;;;;;;;;7.67;7.67;;;;;;;;5081158;28;45486;-80
2024/02/18 04:08:26;;;;;;;;;10.00;9.00;;;;;;;;5081344;28;45451;-80
2024/02/18 04:10:51;;;;;;;;;7.00;7.00;;;;;;;;5081109;28;47466;-79
2024/02/18 04:13:17;;;;;;;;;9.33;9.33;;;;;;;;5081019;28;47124;-80
2024/02/18 04:15:42;;;;;;;;;6.00;6.00;;;;;;;;5082393;27;45232;-80
2024/02/18 04:18:07;;;;;;;;;8.67;6.33;;;;;;;;5082532;28;45244;-79
2024/02/18 04:20:32;;;;;;;;;7.67;6.00;;;;;;;;5077606;27;45280;-79
2024/02/18 04:22:57;;;;;;;;;7.67;7.67;;;;;;;;5061453;28;45592;-79
2024/02/18 04:25:23;;;;;;;;;11.00;9.33;;;;;;;;5060262;28;45730;-80
2024/02/18 04:27:48;;;;;;;;;6.00;6.00;;;;;;;;5061828;28;45445;-80
2024/02/18 04:30:13;;;;;;;;;10.33;8.67;;;;;;;;5061888;28;45361;-79
2024/02/18 04:32:38;;;;;;;;;9.33;8.00;;;;;;;;5061852;28;46212;-80
2024/02/18 04:35:04;;;;;;;;;8.67;8.00;;;;;;;;5061979;28;45241;-80
2024/02/18 04:37:29;;;;;;;;;5.67;5.67;;;;;;;;5060448;28;45574;-79
2024/02/18 04:39:54;;;;;;;;;9.00;9.00;;;;;;;;5060273;28;46296;-80
2024/02/18 04:42:19;;;;;;;;;7.33;7.33;;;;;;;;5061668;28;46376;-79
2024/02/18 04:44:45;;;;;;;;;6.00;5.33;;;;;;;;5060390;28;45373;-79
2024/02/18 04:47:10;;;;;;;;;7.67;7.00;;;;;;;;5061698;28;45325;-80
2024/02/18 04:49:35;;;;;;;;;7.67;7.33;;;;;;;;5061440;28;45325;-79
2024/02/18 04:52:01;;;;;;;;;9.00;8.00;;;;;;;;5060156;28;45395;-79
2024/02/18 04:54:26;;;;;;;;;9.00;7.67;;;;;;;;5060545;28;45341;-79
2024/02/18 04:56:52;;;;;;;;;5.67;5.67;;;;;;;;5063390;28;45448;-79
2024/02/18 04:59:17;;;;;;;;;7.67;7.67;;;;;;;;5081777;27;45375;-79
2024/02/18 05:01:46;;;;;;;;;8.00;8.00;;;;;;;;5081823;27;46555;-79
2024/02/18 05:04:11;;;;;;;;;9.00;8.00;;;;;;;;5081656;27;45320;-79
2024/02/18 05:06:36;;;;;;;;;7.67;7.67;;;;;;;;5079960;28;45291;-80
2024/02/18 05:09:01;;;;;;;;;9.67;9.33;;;;;;;;5080232;28;46754;-79
2024/02/18 05:11:26;;;;;;;;;6.67;6.67;;;;;;;;5081578;27;45339;-80
2024/02/18 05:13:52;;;;;;;;;6.67;6.67;;;;;;;;5081534;27;45335;-80
2024/02/18 05:16:17;;;;;;;;;7.67;7.67;;;;;;;;5081605;28;45337;-79
2024/02/18 05:18:45;;;;;;;;;6.67;4.67;;;;;;;;5079763;28;46012;-79
2024/02/18 05:21:10;;;;;;;;;6.00;5.67;;;;;;;;5081086;28;46262;-79
2024/02/18 05:23:36;;;;;;;;;7.00;7.00;;;;;;;;5081310;27;45310;-80
2024/02/18 05:26:02;;;;;;;;;5.67;5.67;;;;;;;;5081280;27;45230;-80
2024/02/18 05:28:27;;;;;;;;;7.00;7.00;;;;;;;;5081213;28;45539;-80
2024/02/18 05:30:52;;;;;;;;;6.67;6.67;;;;;;;;5079762;28;47394;-80
2024/02/18 05:33:17;;;;;;;;;4.33;4.00;;;;;;;;5081169;27;45338;-79
2024/02/18 05:35:43;;;;;;;;;7.00;7.00;;;;;;;;5079730;28;45270;-79
2024/02/18 05:38:09;;;;;;;;;8.67;8.00;;;;;;;;5079516;28;46168;-79
2024/02/18 05:40:34;;;;;;;;;7.67;7.00;;;;;;;;5080983;27;45326;-79
2024/02/18 05:42:59;;;;;;;;;7.00;6.67;;;;;;;;5081191;27;45278;-80
2024/02/18 05:45:30;;;;;;;;;7.00;7.00;;;;;;;;5081080;27;45357;-79
2024/02/18 05:47:55;;;;;;;;;8.00;6.33;;;;;;;;5079536;28;46036;-79
2024/02/18 05:50:20;;;;;;;;;7.00;7.00;;;;;;;;5080554;27;45884;-79
2024/02/18 05:52:46;;;;;;;;;7.67;7.33;;;;;;;;5079167;28;45426;-80
2024/02/18 05:55:11;;;;;;;;;6.33;6.33;;;;;;;;5080954;28;45297;-79
2024/02/18 05:57:36;;;;;;;;;6.00;6.00;;;;;;;;5070645;27;45272;-80
2024/02/18 06:00:01;;;;;;;;;6.00;6.00;;;;;;;;5060398;28;45504;-79
2024/02/18 06:02:27;;;;;;;;;7.33;7.00;;;;;;;;5060503;28;45248;-80
2024/02/18 06:04:52;;;;;;;;;9.33;7.33;;;;;;;;5060572;28;45382;-79
2024/02/18 06:07:17;;;;;;;;;7.00;7.00;;;;;;;;5058816;28;46223;-80
2024/02/18 06:09:43;;;;;;;;;9.67;6.33;;;;;;;;5058774;28;48248;-79
2024/02/18 06:12:08;;;;;;;;;6.33;6.33;;;;;;;;5060382;28;45287;-80
2024/02/18 06:14:33;;;;;;;;;9.00;8.00;;;;;;;;5060372;28;45311;-80
2024/02/18 06:16:58;;;;;;;;;7.00;6.00;;;;;;;;5060238;28;45597;-80
2024/02/18 06:19:23;;;;;;;;;6.00;6.00;;;;;;;;5058554;28;48558;-79
2024/02/18 06:21:48;;;;;;;;;6.33;6.33;;;;;;;;5060009;28;45500;-79
2024/02/18 06:24:14;;;;;;;;;7.33;7.00;;;;;;;;5060276;28;45306;-80
2024/02/18 06:26:42;;;;;;;;;7.33;6.00;;;;;;;;5059063;28;45372;-80
2024/02/18 06:29:07;;;;;;;;;7.00;7.00;;;;;;;;5060056;28;45650;-80
2024/02/18 06:31:32;;;;;;;;;7.00;6.00;;;;;;;;5060030;28;45246;-80
2024/02/18 06:33:58;;;;;;;;;7.33;7.00;;;;;;;;5060144;28;45488;-79
2024/02/18 06:36:25;;;;;;;;;7.67;6.67;;;;;;;;5058495;28;46170;-79
2024/02/18 06:38:50;;;;;;;;;8.33;8.33;;;;;;;;5059822;28;45449;-80
2024/02/18 06:41:15;;;;;;;;;7.67;7.67;;;;;;;;5059893;28;45376;-79
2024/02/18 06:43:40;;;;;;;;;6.67;6.67;;;;;;;;5060213;28;45599;-80
2024/02/18 06:46:05;;;;;;;;;8.67;7.33;;;;;;;;5059775;28;45428;-80
2024/02/18 06:48:31;;;;;;;;;7.00;7.00;;;;;;;;5059353;28;45484;-79
2024/02/18 06:50:56;;;;;;;;;7.00;6.00;;;;;;;;5058236;28;46248;-80
2024/02/18 06:53:21;;;;;;;;;8.00;8.00;;;;;;;;5058750;28;45636;-80
2024/02/18 06:55:46;;;;;;;;;9.33;7.67;;;;;;;;5059443;28;45439;-79
2024/02/18 06:58:14;;;;;;;;;8.00;8.00;;;;;;;;5074245;28;46394;-80
2024/02/18 07:00:39;;;;;;;;;11.33;8.67;;;;;;;;5078775;28;45330;-80
2024/02/18 07:03:06;;;;;;;;;7.00;7.00;;;;;;;;5080014;27;45242;-79
2024/02/18 07:05:31;;;;;;;;;10.33;9.67;;;;;;;;5078268;28;46162;-80
2024/02/18 07:07:56;;;;;;;;;8.00;7.00;;;;;;;;5078168;28;48326;-79
2024/02/18 07:10:21;;;;;;;;;8.33;7.00;;;;;;;;5079818;27;45332;-80
2024/02/18 07:12:47;;;;;;;;;7.33;7.00;;;;;;;;5078597;28;45183;-80
2024/02/18 07:15:12;;;;;;;;;7.67;7.67;;;;;;;;5083988;27;45262;-79
2024/02/18 07:17:37;;;;;;;;;9.00;8.33;;;;;;;;5083164;28;47206;-80
2024/02/18 07:20:03;;;;;;;;;7.00;7.00;;;;;;;;5065259;28;45228;-79
2024/02/18 07:22:28;;;;;;;;;7.67;7.00;;;;;;;;5065226;28;45247;-79
2024/02/18 07:24:53;;;;;;;;;7.67;7.00;;;;;;;;5064036;28;46329;-79
2024/02/18 07:27:18;;;;;;;;;8.00;8.00;;;;;;;;5065081;28;45666;-79
2024/02/18 07:29:43;;;;;;;;;7.00;7.00;;;;;;;;5065727;28;45234;-80
2024/02/18 07:32:09;;;;;;;;;7.00;7.00;;;;;;;;5066299;28;45225;-80
2024/02/18 07:34:34;;;;;;;;;7.00;7.00;;;;;;;;5064452;28;46160;-80
2024/02/18 07:36:59;;;;;;;;;8.67;7.00;;;;;;;;5065726;28;46349;-80
2024/02/18 07:39:24;;;;;;;;;7.00;7.00;;;;;;;;5065966;28;45350;-81
2024/02/18 07:41:49;;;;;;;;;7.00;7.00;;;;;;;;5066036;28;45256;-78
2024/02/18 07:44:15;;;;;;;;;7.33;7.33;;;;;;;;5065417;28;45350;-80
2024/02/18 07:46:41;;;;;;;;;5.33;5.33;;;;;;;;5064290;28;47181;-81
2024/02/18 07:49:06;;;;;;;;;8.33;7.33;;;;;;;;5064321;28;45626;-81
2024/02/18 07:51:31;;;;;;;;;8.33;7.67;;;;;;;;5065553;28;45382;-81
2024/02/18 07:53:57;;;;;;;;;6.67;6.33;;;;;;;;5065587;28;45317;-80
2024/02/18 07:56:22;;;;;;;;;7.00;5.33;;;;;;;;5064015;28;47307;-79
2024/02/18 07:58:48;;;;;;;;;7.33;7.00;;;;;;;;5085426;28;45284;-79
2024/02/18 08:01:13;;;;;;;;;6.33;6.33;;;;;;;;5084757;28;45448;-79
2024/02/18 08:03:40;;;;;;;;;8.00;7.00;;;;;;;;5084393;28;46426;-80
2024/02/18 08:06:07;;;;;;;;;7.67;7.67;;;;;;;;5085520;27;45297;-79
2024/02/18 08:08:32;;;;;;;;;9.67;8.00;;;;;;;;5086174;27;45254;-79
2024/02/18 08:10:58;;;;;;;;;6.33;6.33;;;;;;;;5084919;28;45299;-79
2024/02/18 08:13:23;;;;;;;;;6.00;6.00;;;;;;;;5086286;28;45277;-80
2024/02/18 08:15:48;;;;;;;;;3.00;3.00;;;;;;;;5085748;27;45143;-80
2024/02/18 08:18:13;;;;;;;;;3.67;3.67;;;;;;;;5078715;27;45630;-80
2024/02/18 08:20:38;;;;;;;;;7.33;7.33;;;;;;;;5063698;28;45305;-79
2024/02/18 08:23:06;;;;;;;;;6.67;6.33;;;;;;;;5064958;28;45213;-78
2024/02/18 08:25:31;;;;;;;;;6.00;6.00;;;;;;;;5062406;28;47203;-79
2024/02/18 08:27:56;;;;;;;;;6.00;4.33;;;;;;;;5059867;28;45370;-79
2024/02/18 08:30:21;;;;;;;;;6.67;6.67;;;;;;;;5062060;28;45564;-80
2024/02/18 08:32:46;;;;;;;;;7.67;7.00;;;;;;;;5062079;28;45270;-78
2024/02/18 08:35:12;;;;;;;;;5.33;5.33;;;;;;;;5061869;28;45356;-78
2024/02/18 08:37:37;;;;;;;;;7.33;5.67;;;;;;;;5064635;28;45281;-78
2024/02/18 08:40:03;;;;;;;;;8.00;8.00;;;;;;;;5060659;28;45389;-78
2024/02/18 08:42:28;;;;;;;;;7.00;5.67;;;;;;;;5061773;28;45358;-76
2024/02/18 08:44:55;;;;;;;;;6.00;6.00;;;;;;;;5060267;28;47180;-77
2024/02/18 08:47:20;;;;;;;;;9.33;8.67;;;;;;;;5061615;28;45264;-76
2024/02/18 08:49:45;;;;;;;;;7.00;7.00;;;;;;;;5060348;28;45266;-76
2024/02/18 08:52:10;;;;;;;;;5.67;5.67;;;;;;;;5061280;28;45513;-76
2024/02/18 08:54:35;;;;;;;;;7.67;7.67;;;;;;;;5060420;28;45384;-76
2024/02/18 08:57:00;;;;;;;;;5.67;5.00;;;;;;;;5064796;28;45840;-76
2024/02/18 08:59:26;;;;;;;;;4.67;4.67;;;;;;;;5076451;28;45204;-76
2024/02/18 09:01:55;;;;;;;;;6.00;5.67;;;;;;;;5060524;28;45344;-76
2024/02/18 09:04:21;;;;;;;;;7.00;7.00;;;;;;;;5059098;28;47106;-76
2024/02/18 09:06:46;;;;;;;;;5.67;5.67;;;;;;;;5059798;28;45812;-76
2024/02/18 09:09:11;;;;;;;;;6.67;6.67;;;;;;;;5059196;28;45347;-76
2024/02/18 09:11:36;;;;;;;;;6.33;5.67;;;;;;;;5060606;28;45448;-76
2024/02/18 09:14:01;;;;;;;;;8.00;7.00;;;;;;;;5060298;28;46509;-76
2024/02/18 09:16:26;;;;;;;;;4.00;4.00;;;;;;;;5060275;28;45254;-77
2024/02/18 09:18:52;;;;;;;;;6.00;6.00;;;;;;;;5057940;28;45544;-77
2024/02/18 09:21:17;;;;;;;;;5.33;3.67;;;;;;;;5060337;28;45310;-76
2024/02/18 09:23:43;;;;;;;;;8.67;7.00;;;;;;;;5058502;28;45474;-77
2024/02/18 09:26:09;;;;;;;;;6.33;6.33;;;;;;;;5060649;28;45354;-77
2024/02/18 09:28:34;;;;;;;;;8.00;8.00;;;;;;;;5060854;28;45347;-77
2024/02/18 09:31:00;;;;;;;;;9.33;9.33;;;;;;;;5060752;28;45660;-77
2024/02/18 09:33:25;;;;;;;;;8.00;7.67;;;;;;;;5060508;28;46064;-79
2024/02/18 09:35:50;;;;;;;;;9.00;6.67;;;;;;;;5060563;28;45196;-79
2024/02/18 09:38:15;;;;;;;;;8.00;7.00;;;;;;;;5059456;28;45244;-79
2024/02/18 09:40:41;;;;;;;;;8.00;7.67;;;;;;;;5064522;28;45445;-80
2024/02/18 09:43:06;;;;;;;;;9.33;9.00;;;;;;;;5063022;28;47226;-80
2024/02/18 09:45:32;;;;;;;;;7.33;7.00;;;;;;;;5060937;28;45463;-79
2024/02/18 09:48:00;;;;;;;;;10.33;9.67;;;;;;;;5059120;28;45461;-77
2024/02/18 09:50:27;;;;;;;;;12.67;10.33;;;;;;;;5059571;28;45490;-78
2024/02/18 09:52:54;;;;;;;;;10.33;10.33;;;;;;;;5058297;28;47338;-78
2024/02/18 09:55:25;;;;;;;;;8.33;7.33;;;;;;;;5058056;28;45392;-78
2024/02/18 09:57:50;;;;;;;;;7.33;7.00;;;;;;;;5061500;28;45385;-78
2024/02/18 10:00:15;;;;;;;;;10.00;8.33;;;;;;;;5059188;28;45547;-78
2024/02/18 10:02:41;;;;;;;;;8.00;7.33;;;;;;;;5058984;28;45448;-79
2024/02/18 10:05:07;;;;;;;;;8.33;8.33;;;;;;;;5059094;28;45327;-78
2024/02/18 10:07:32;;;;;;;;;7.67;5.33;;;;;;;;5059945;28;45661;-78
2024/02/18 10:09:58;;;;;;;;;9.00;7.00;;;;;;;;5059357;28;47215;-79
2024/02/18 10:12:23;;;;;;;;;8.33;8.00;;;;;;;;5059723;28;45504;-79
2024/02/18 10:14:55;;;;;;;;;9.67;8.67;;;;;;;;5059998;28;45350;-79
2024/02/18 10:17:21;;;;;;;;;6.33;5.00;;;;;;;;5060406;28;45401;-79
2024/02/18 10:19:47;;;;;;;;;7.00;7.00;;;;;;;;5059591;28;45319;-82
2024/02/18 10:22:13;;;;;;;;;14.00;11.33;;;;;;;;5059504;28;46304;-80
2024/02/18 10:24:38;;;;;;;;;8.00;6.00;;;;;;;;5059549;28;45317;-81
2024/02/18 10:27:04;;;;;;;;;6.00;6.00;;;;;;;;5059457;28;45339;-80
2024/02/18 10:29:29;;;;;;;;;8.67;8.67;;;;;;;;5058117;28;47078;-82
2024/02/18 10:31:54;;;;;;;;;7.00;7.00;;;;;;;;5059141;28;46361;-80
2024/02/18 10:34:19;;;;;;;;;8.67;8.00;;;;;;;;5059844;28;45326;-80
2024/02/18 10:36:46;;;;;;;;;7.00;7.00;;;;;;;;5059367;28;45603;-80
2024/02/18 10:39:14;;;;;;;;;7.67;6.00;;;;;;;;5057678;28;45914;-81
2024/02/18 10:41:43;;;;;;;;;7.00;6.67;;;;;;;;5055844;28;45461;-80
2024/02/18 10:44:16;;;;;;;;;6.00;6.00;;;;;;;;5073007;28;45532;-79
2024/02/18 10:46:43;;;;;;;;;7.00;7.00;;;;;;;;5059333;28;45356;-79
2024/02/18 10:49:28;;;;;;;;;10.00;9.00;;;;;;;;5055993;28;46458;-79
2024/02/18 10:51:59;;;;;;;;;8.67;7.00;;;;;;;;5057569;28;47039;-79
2024/02/18 10:54:39;;;;;;;;;8.00;8.00;;;;;;;;5057570;28;45479;-79
2024/02/18 10:57:05;;;;;;;;;9.33;9.00;;;;;;;;5064282;28;45396;-79
2024/02/18 10:59:49;;;;;;;;;9.00;9.00;;;;;;;;5063453;28;46454;-80
2024/02/18 11:02:18;;;;;;;;;8.00;8.00;;;;;;;;5058662;28;45224;-79
2024/02/18 11:04:44;;;;;;;;;7.67;7.00;;;;;;;;5060046;28;45279;-80
2024/02/18 11:07:10;;;;;;;;;10.33;8.33;;;;;;;;5059272;28;45270;-79
2024/02/18 11:09:36;;;;;;;;;8.00;8.00;;;;;;;;5058130;28;46987;-78
2024/02/18 11:12:02;;;;;;;;;9.67;9.33;;;;;;;;5057954;28;47135;-79
2024/02/18 11:14:27;;;;;;;;;9.00;9.00;;;;;;;;5056969;28;45319;-81
2024/02/18 11:16:53;;;;;;;;;7.00;6.33;;;;;;;;5053081;28;45422;-79
2024/02/18 11:19:19;;;;;;;;;9.00;8.33;;;;;;;;5057545;28;47127;-79
2024/02/18 11:21:45;;;;;;;;;9.00;9.00;;;;;;;;5058904;28;45975;-79
2024/02/18 11:24:10;;;;;;;;;8.33;8.33;;;;;;;;5058041;28;45228;-80
2024/02/18 11:26:35;;;;;;;;;7.33;7.33;;;;;;;;5059071;28;45362;-81
2024/02/18 11:29:02;;;;;;;;;7.67;7.67;;;;;;;;5057387;28;46752;-81
2024/02/18 11:31:27;;;;;;;;;10.33;10.00;;;;;;;;5059062;28;46096;-79
2024/02/18 11:33:53;;;;;;;;;12.33;10.67;;;;;;;;5058753;28;45267;-79
2024/02/18 11:36:18;;;;;;;;;8.33;8.33;;;;;;;;5059313;28;45152;-80
2024/02/18 11:38:45;;;;;;;;;11.33;9.33;;;;;;;;5058986;28;45480;-80
2024/02/18 11:41:23;;;;;;;;;8.33;8.33;;;;;;;;5057594;28;47278;-80
2024/02/18 11:43:52;;;;;;;;;10.00;8.00;;;;;;;;5054869;28;45386;-80
2024/02/18 11:46:18;;;;;;;;;12.00;10.33;;;;;;;;5058534;28;45208;-80
2024/02/18 11:48:43;;;;;;;;;9.00;9.00;;;;;;;;5057768;28;45223;-80
2024/02/18 11:51:08;;;;;;;;;9.00;9.00;;;;;;;;5056341;28;47064;-79
2024/02/18 11:53:34;;;;;;;;;11.33;9.67;;;;;;;;5047457;28;46239;-80
2024/02/18 11:55:59;;;;;;;;;10.00;10.00;;;;;;;;5055156;28;45621;-80
2024/02/18 11:58:25;;;;;;;;;8.67;8.00;;;;;;;;5059301;28;45613;-79
2024/02/18 12:00:50;;;;;;;;;9.33;9.33;;;;;;;;5059271;28;46438;-78
2024/02/18 12:03:16;;;;;;;;;12.33;8.67;;;;;;;;5051671;28;45486;-80
2024/02/18 12:05:41;;;;;;;;;7.00;7.00;;;;;;;;5040192;28;45445;-79
2024/02/18 12:08:07;;;;;;;;;9.00;7.33;;;;;;;;5041791;28;46198;-79
2024/02/18 12:10:33;;;;;;;;;10.00;9.00;;;;;;;;5056822;28;47309;-79
2024/02/18 12:12:58;;;;;;;;;11.00;10.00;;;;;;;;5060014;28;45383;-78
2024/02/18 12:15:25;;;;;;;;;10.00;8.67;;;;;;;;5059608;28;45418;-78
2024/02/18 12:17:53;;;;;;;;;9.33;9.00;;;;;;;;5054157;28;46942;-78
2024/02/18 12:20:19;;;;;;;;;7.00;7.00;;;;;;;;5058599;28;45634;-78
2024/02/18 12:22:46;;;;;;;;;12.33;10.33;;;;;;;;5057556;28;46054;-79
2024/02/18 12:25:12;;;;;;;;;12.33;12.33;;;;;;;;5049389;28;45435;-79
2024/02/18 12:27:37;;;;;;;;;16.00;15.00;;;;;;;;5058843;28;47438;-78
2024/02/18 12:30:03;;;;;;;;;15.33;15.33;;;;;;;;5060363;28;45651;-79
2024/02/18 12:32:28;;;;;;;;;18.00;14.00;;;;;;;;5059759;28;45506;-79
2024/02/18 12:34:53;;;;;;;;;9.33;9.00;;;;;;;;5059199;28;45311;-79
2024/02/18 12:37:18;;;;;;;;;11.00;11.00;;;;;;;;5060282;28;45402;-79
2024/02/18 12:39:44;;;;;;;;;12.67;12.67;;;;;;;;5060568;28;45385;-79
2024/02/18 12:42:09;;;;;;;;;16.00;14.33;;;;;;;;5060902;28;45515;-78
2024/02/18 12:44:35;;;;;;;;;14.67;14.33;;;;;;;;5059633;28;45577;-78
2024/02/18 12:47:00;;;;;;;;;14.00;12.00;;;;;;;;5058900;28;47280;-79
2024/02/18 12:49:26;;;;;;;;;17.33;17.00;;;;;;;;5059623;28;48258;-79
2024/02/18 12:51:52;;;;;;;;;15.33;14.00;;;;;;;;5058092;28;46002;-78
2024/02/18 12:54:20;;;;;;;;;11.00;10.00;;;;;;;;5060716;28;45842;-79
2024/02/18 12:56:45;;;;;;;;;13.33;13.33;;;;;;;;5060361;28;46482;-79
2024/02/18 12:59:10;;;;;;;;;12.67;12.33;;;;;;;;5059142;28;46387;-79
2024/02/18 13:01:35;;;;;;;;;11.67;10.00;;;;;;;;5060532;28;45358;-79
2024/02/18 13:04:02;;;;;;;;;10.67;10.33;;;;;;;;5059213;28;45983;-78
2024/02/18 13:06:27;;;;;;;;;10.00;8.33;;;;;;;;5058285;28;45516;-79
2024/02/18 13:08:53;;;;;;;;;9.67;9.67;;;;;;;;5058903;28;48121;-79
2024/02/18 13:11:18;;;;;;;;;14.67;13.67;;;;;;;;5060845;28;45464;-79
2024/02/18 13:13:43;;;;;;;;;13.00;12.00;;;;;;;;5060181;28;45312;-80
2024/02/18 13:16:08;;;;;;;;;11.33;11.33;;;;;;;;5059276;28;46112;-79
2024/02/18 13:18:34;;;;;;;;;11.00;11.00;;;;;;;;5060664;28;45405;-79
2024/02/18 13:21:02;;;;;;;;;13.33;11.00;;;;;;;;5059192;28;45307;-78
2024/02/18 13:23:27;;;;;;;;;13.67;12.33;;;;;;;;5060812;28;45228;-79
2024/02/18 13:25:53;;;;;;;;;12.67;12.00;;;;;;;;5059122;28;47152;-78
2024/02/18 13:28:19;;;;;;;;;11.67;11.67;;;;;;;;5058614;28;47434;-78
2024/02/18 13:30:44;;;;;;;;;14.00;14.00;;;;;;;;5059153;28;45470;-78
2024/02/18 13:33:10;;;;;;;;;14.33;13.33;;;;;;;;5059093;28;45239;-78
2024/02/18 13:35:35;;;;;;;;;17.67;16.00;;;;;;;;5059039;28;45898;-78
2024/02/18 13:38:00;;;;;;;;;11.67;10.33;;;;;;;;5049755;28;47130;-79
2024/02/18 13:40:26;;;;;;;;;14.67;14.67;;;;;;;;5059615;28;45311;-78
2024/02/18 13:42:51;;;;;;;;;13.67;12.67;;;;;;;;5059853;28;45372;-78
2024/02/18 13:45:17;;;;;;;;;14.67;13.33;;;;;;;;5059462;28;45378;-78
2024/02/18 13:47:43;;;;;;;;;17.67;17.33;;;;;;;;5059497;28;45640;-78
2024/02/18 13:50:10;;;;;;;;;14.33;11.33;;;;;;;;5059072;28;45318;-78
2024/02/18 13:52:35;;;;;;;;;17.33;15.67;;;;;;;;5057615;28;45623;-80
2024/02/18 13:55:00;;;;;;;;;11.33;11.33;;;;;;;;5059110;28;45687;-78
2024/02/18 13:57:25;;;;;;;;;15.67;13.00;;;;;;;;5060241;28;46321;-78
2024/02/18 13:59:50;;;;;;;;;17.33;16.00;;;;;;;;5046733;28;45331;-78
2024/02/18 14:02:15;;;;;;;;;15.33;15.33;;;;;;;;5059368;28;45366;-78
2024/02/18 14:04:41;;;;;;;;;16.00;16.00;;;;;;;;5059535;28;45280;-78
2024/02/18 14:07:07;;;;;;;;;20.67;15.67;;;;;;;;5058337;28;46262;-79
2024/02/18 14:09:33;;;;;;;;;18.33;16.67;;;;;;;;5053296;28;45450;-79
2024/02/18 14:11:58;;;;;;;;;18.67;18.67;;;;;;;;5059517;28;45298;-79
2024/02/18 14:14:23;;;;;;;;;17.00;15.00;;;;;;;;5058143;28;46301;-78
2024/02/18 14:16:51;;;;;;;;;19.33;17.33;;;;;;;;5051959;28;45453;-80
2024/02/18 14:19:16;;;;;;;;;18.33;18.00;;;;;;;;5043842;28;45408;-79
2024/02/18 14:21:43;;;;;;;;;17.33;15.67;;;;;;;;5056865;28;45489;-79
2024/02/18 14:24:08;;;;;;;;;18.00;18.00;;;;;;;;5058288;28;45440;-79